Time;durP1;ratioP1;P1;durP2;ratioP2;P2;SDS_P1;SDS_P2;PMS_P1;PMS_P2;Temp;Humidity;BMP_temperature;BMP_pressure;BME280_temperature;BME280_humidity;BME280_pressure;Samples;Min_cycle;Max_cycle;Signal;HPM_P1;HPM_P2
2023/06/27 00:00:13;;;;;;;3.40;1.48;;;;;;;14.47;100.00;96100.06;1030689;28;20018;-76
2023/06/27 00:00:44;;;;;;;5.82;1.85;;;;;;;14.49;100.00;96101.38;1035441;28;20033;-76
2023/06/27 00:01:14;;;;;;;4.82;1.88;;;;;;;14.50;100.00;96107.44;1042157;28;20028;-76
2023/06/27 00:01:45;;;;;;;5.38;1.95;;;;;;;14.50;100.00;96105.63;1034998;28;20082;-76
2023/06/27 00:02:15;;;;;;;3.72;1.60;;;;;;;14.49;100.00;96121.72;1039288;28;20018;-77
2023/06/27 00:02:53;;;;;;;3.80;2.15;;;;;;;14.41;100.00;96109.88;1043002;28;20025;-76
2023/06/27 00:03:24;;;;;;;4.53;1.60;;;;;;;14.34;100.00;96107.56;1039789;28;20022;-75
2023/06/27 00:03:55;;;;;;;3.85;1.75;;;;;;;14.35;100.00;96116.28;1038578;28;20020;-76
2023/06/27 00:04:28;;;;;;;6.28;2.00;;;;;;;14.29;100.00;96112.13;1041442;28;20502;-75
2023/06/27 00:05:00;;;;;;;5.53;1.90;;;;;;;14.25;100.00;96108.44;1043478;28;20017;-76
2023/06/27 00:05:31;;;;;;;4.95;1.75;;;;;;;14.20;100.00;96104.00;1047741;28;20025;-75
2023/06/27 00:06:03;;;;;;;2.40;1.50;;;;;;;14.25;100.00;96114.53;1046763;28;20032;-76
2023/06/27 00:06:40;;;;;;;2.20;1.60;;;;;;;14.22;100.00;96115.06;1043846;28;20033;-76
2023/06/27 00:07:11;;;;;;;2.88;1.40;;;;;;;14.21;100.00;96116.13;1042844;28;20021;-76
2023/06/27 00:07:42;;;;;;;3.20;1.60;;;;;;;14.22;100.00;96115.06;1043712;28;20032;-76
2023/06/27 00:08:12;;;;;;;4.57;1.50;;;;;;;14.24;100.00;96117.44;1051221;28;20032;-76
2023/06/27 00:08:45;;;;;;;4.55;1.88;;;;;;;14.15;100.00;96117.22;1048053;28;20035;-76
2023/06/27 00:09:15;;;;;;;5.88;2.13;;;;;;;14.19;100.00;96123.53;1046747;28;20436;-76
2023/06/27 00:09:46;;;;;;;2.17;1.60;;;;;;;14.20;100.00;96124.31;1050642;28;20028;-75
2023/06/27 00:10:16;;;;;;;3.58;1.92;;;;;;;14.20;100.00;96124.31;1042756;28;20484;-76
2023/06/27 00:10:47;;;;;;;3.35;2.00;;;;;;;14.20;100.00;96117.19;1047007;28;20027;-76
2023/06/27 00:11:17;;;;;;;5.05;2.03;;;;;;;14.17;100.00;96119.59;1041948;28;20033;-75
2023/06/27 00:11:48;;;;;;;4.68;1.90;;;;;;;14.14;100.00;96124.34;1042735;28;20132;-76
2023/06/27 00:12:19;;;;;;;6.43;2.00;;;;;;;14.13;100.00;96124.63;1042689;28;20033;-76
2023/06/27 00:12:52;;;;;;;5.43;1.60;;;;;;;14.07;100.00;96120.44;1038769;28;20033;-76
2023/06/27 00:13:23;;;;;;;6.70;1.70;;;;;;;14.01;100.00;96111.78;1039357;28;20116;-76
2023/06/27 00:13:53;;;;;;;6.95;1.80;;;;;;;14.06;100.00;96124.16;1038949;28;20037;-76
2023/06/27 00:14:24;;;;;;;4.75;1.75;;;;;;;14.05;100.00;96122.56;1042697;28;20545;-76
2023/06/27 00:14:54;;;;;;;4.18;1.90;;;;;;;14.02;100.00;96137.13;1039109;28;20029;-77
2023/06/27 00:15:27;;;;;;;4.03;1.70;;;;;;;13.98;100.00;96127.38;1038836;28;20042;-76
2023/06/27 00:16:00;;;;;;;4.82;2.08;;;;;;;13.97;100.00;96126.59;1034438;28;20024;-76
2023/06/27 00:16:32;;;;;;;3.53;1.65;;;;;;;13.96;100.00;96129.50;1035474;28;20677;-76
2023/06/27 00:17:07;;;;;;;5.72;1.92;;;;;;;13.93;100.00;96132.69;1038772;28;20037;-76
2023/06/27 00:17:40;;;;;;;2.03;1.30;;;;;;;13.92;100.00;96131.91;1038501;28;20566;-76
2023/06/27 00:18:10;;;;;;;3.72;1.50;;;;;;;13.91;100.00;96133.72;1042567;28;20067;-76
2023/06/27 00:18:47;;;;;;;3.10;1.38;;;;;;;13.86;100.00;96127.72;1045740;28;20036;-76
2023/06/27 00:19:18;;;;;;;2.45;1.88;;;;;;;13.80;100.00;96120.91;1048219;28;20025;-76
2023/06/27 00:19:48;;;;;;;2.00;1.80;;;;;;;13.83;100.00;96131.69;1044151;28;20514;-76
2023/06/27 00:20:19;;;;;;;3.60;1.75;;;;;;;13.82;100.00;96124.84;1038477;28;20029;-75
2023/06/27 00:20:50;;;;;;;5.88;1.80;;;;;;;13.80;100.00;96126.97;1030630;28;20029;-76
2023/06/27 00:21:28;;;;;;;4.32;1.40;;;;;;;13.86;100.00;96125.88;1042072;28;20063;-76
2023/06/27 00:21:59;;;;;;;2.15;1.63;;;;;;;13.87;100.00;96127.44;1038492;28;20079;-76
2023/06/27 00:22:30;;;;;;;6.43;2.25;;;;;;;13.80;100.00;96111.13;1039858;28;20099;-76
2023/06/27 00:23:16;;;;;;;2.92;1.52;;;;;;;13.83;100.00;96121.13;1041435;28;20510;-75
2023/06/27 00:23:48;;;;;;;5.57;1.85;;;;;;;13.84;100.00;96125.34;1042692;28;20025;-76
2023/06/27 00:24:19;;;;;;;3.88;1.67;;;;;;;13.85;100.00;96128.78;1041049;28;20025;-76
2023/06/27 00:24:49;;;;;;;7.47;1.65;;;;;;;13.82;100.00;96119.56;1043542;28;20491;-77
2023/06/27 00:25:20;;;;;;;6.43;1.70;;;;;;;13.77;100.00;96114.31;1038517;28;20025;-75
2023/06/27 00:25:50;;;;;;;3.85;2.25;;;;;;;13.79;100.00;96116.69;1034522;28;20025;-76
2023/06/27 00:26:20;;;;;;;3.00;1.60;;;;;;;13.75;100.00;96108.53;1030284;28;20061;-75
2023/06/27 00:26:51;;;;;;;6.78;1.83;;;;;;;13.77;100.00;96116.16;1031924;28;20034;-76
2023/06/27 00:27:21;;;;;;;2.92;1.48;;;;;;;13.66;100.00;96105.69;1046860;28;20032;-76
2023/06/27 00:27:53;;;;;;;4.18;1.80;;;;;;;13.77;100.00;96122.22;1041226;28;20060;-74
2023/06/27 00:28:23;;;;;;;4.50;1.80;;;;;;;13.79;100.00;96121.97;1038551;28;20104;-75
2023/06/27 00:28:54;;;;;;;5.15;1.58;;;;;;;13.74;100.00;96112.22;1030557;28;20026;-76
2023/06/27 00:29:26;;;;;;;4.32;1.98;;;;;;;13.76;100.00;96115.38;1026712;28;20078;-76
2023/06/27 00:29:56;;;;;;;4.43;1.65;;;;;;;13.75;100.00;96127.00;1034609;28;20506;-76
2023/06/27 00:30:26;;;;;;;8.00;2.55;;;;;;;13.75;100.00;96129.63;1037799;28;20085;-76
2023/06/27 00:30:57;;;;;;;6.60;1.90;;;;;;;13.73;100.00;96125.69;1038914;28;20048;-75
2023/06/27 00:31:27;;;;;;;6.80;1.95;;;;;;;13.72;100.00;96135.44;1042213;28;20404;-76
2023/06/27 00:31:58;;;;;;;4.60;1.70;;;;;;;13.62;100.00;96120.47;1037051;28;20479;-76
2023/06/27 00:32:28;;;;;;;3.75;1.50;;;;;;;13.65;100.00;96116.50;1038750;28;20048;-75
2023/06/27 00:32:59;;;;;;;5.97;1.85;;;;;;;13.63;100.00;96115.97;1038600;28;20033;-76
2023/06/27 00:33:30;;;;;;;5.55;1.52;;;;;;;13.67;100.00;96133.63;1034415;28;20113;-75
2023/06/27 00:34:01;;;;;;;4.72;1.67;;;;;;;13.62;100.00;96120.47;1034595;28;20022;-76
2023/06/27 00:34:31;;;;;;;4.20;2.13;;;;;;;13.60;100.00;96113.88;1035047;28;20057;-76
2023/06/27 00:35:02;;;;;;;7.35;2.33;;;;;;;13.62;100.00;96124.97;1034760;28;20068;-76
2023/06/27 00:35:33;;;;;;;1.95;1.40;;;;;;;13.68;100.00;96129.13;1045625;28;20039;-76
2023/06/27 00:36:05;;;;;;;5.35;1.50;;;;;;;13.62;100.00;96130.25;1046930;28;20036;-76
2023/06/27 00:36:36;;;;;;;13.02;2.00;;;;;;;13.63;100.00;96131.81;1045810;28;20076;-75
2023/06/27 00:37:06;;;;;;;3.83;1.60;;;;;;;13.61;100.00;96129.41;1046280;28;20493;-76
2023/06/27 00:37:37;;;;;;;6.93;2.17;;;;;;;13.60;100.00;96132.34;1042485;28;20113;-75
2023/06/27 00:38:07;;;;;;;5.85;1.83;;;;;;;13.53;100.00;96122.09;1042802;28;20090;-76
2023/06/27 00:38:38;;;;;;;5.35;1.77;;;;;;;13.53;100.00;96124.72;1042573;28;20044;-75
2023/06/27 00:39:08;;;;;;;7.45;1.90;;;;;;;13.53;100.00;96122.09;1034520;28;20139;-77
2023/06/27 00:39:40;;;;;;;9.27;1.80;;;;;;;13.55;100.00;96129.75;1030356;28;20022;-76
2023/06/27 00:40:11;;;;;;;4.28;1.60;;;;;;;13.56;100.00;96129.47;1038653;28;20029;-76
2023/06/27 00:40:41;;;;;;;4.38;1.40;;;;;;;13.61;100.00;96133.91;1038437;28;20116;-75
2023/06/27 00:41:12;;;;;;;4.75;2.35;;;;;;;13.57;100.00;96130.25;1037639;28;20021;-75
2023/06/27 00:41:42;;;;;;;2.78;1.63;;;;;;;13.58;100.00;96139.72;1034580;28;20314;-76
2023/06/27 00:42:13;;;;;;;6.20;1.73;;;;;;;13.59;100.00;96143.97;1044711;28;20502;-77
2023/06/27 00:42:43;;;;;;;4.43;1.70;;;;;;;13.59;100.00;96147.38;1042785;28;20820;-76
2023/06/27 00:43:14;;;;;;;4.47;1.77;;;;;;;13.59;100.00;96144.75;1038546;28;20144;-76
2023/06/27 00:43:44;;;;;;;5.25;1.92;;;;;;;13.60;100.00;96142.91;1038496;28;20557;-76
2023/06/27 00:44:15;;;;;;;4.55;1.70;;;;;;;13.60;100.00;96148.16;1034468;28;20597;-76
2023/06/27 00:44:45;;;;;;;5.40;1.75;;;;;;;13.62;100.00;96146.06;1030715;28;20467;-76
2023/06/27 00:45:16;;;;;;;3.70;1.50;;;;;;;13.60;100.00;96141.03;1034344;28;20129;-76
2023/06/27 00:45:46;;;;;;;5.15;2.00;;;;;;;13.56;100.00;96131.31;1034531;28;20030;-76
2023/06/27 00:46:26;;;;;;;4.35;2.50;;;;;;;13.03;100.00;96050.06;1042718;28;20498;-76
2023/06/27 00:46:56;;;;;;;5.95;1.73;;;;;;;13.64;100.00;96136.00;1034504;28;20032;-76
2023/06/27 00:47:27;;;;;;;4.78;1.77;;;;;;;13.58;100.00;96140.53;1030184;28;20041;-76
2023/06/27 00:47:58;;;;;;;3.85;1.90;;;;;;;13.62;100.00;96140.78;1038588;28;20013;-76
2023/06/27 00:48:29;;;;;;;3.55;1.80;;;;;;;13.66;100.00;96147.88;1038571;28;20030;-76
2023/06/27 00:48:59;;;;;;;4.50;1.60;;;;;;;13.63;100.00;96139.72;1034398;28;20080;-76
2023/06/27 00:49:30;;;;;;;2.85;1.63;;;;;;;13.65;100.00;96134.97;1026297;28;20053;-76
2023/06/27 00:50:00;;;;;;;5.60;2.10;;;;;;;13.65;100.00;96141.03;1034457;28;20132;-76
2023/06/27 00:50:31;;;;;;;9.45;1.88;;;;;;;13.68;100.00;96142.31;1038812;28;20025;-76
2023/06/27 00:51:01;;;;;;;8.63;1.98;;;;;;;13.68;100.00;96147.59;1029912;28;20034;-75
2023/06/27 00:51:31;;;;;;;5.40;1.85;;;;;;;13.65;100.00;96134.97;1030327;28;20516;-76
2023/06/27 00:52:02;;;;;;;4.63;1.52;;;;;;;13.68;100.00;96140.50;1034531;28;20032;-76
2023/06/27 00:52:33;;;;;;;3.08;1.77;;;;;;;13.76;100.00;96139.13;1034266;28;20022;-76
2023/06/27 00:53:03;;;;;;;7.60;1.77;;;;;;;13.77;100.00;96143.31;1030394;28;20041;-76
2023/06/27 00:53:33;;;;;;;3.38;1.58;;;;;;;13.70;100.00;96136.78;1038435;28;20029;-76
2023/06/27 00:54:04;;;;;;;3.17;1.60;;;;;;;13.74;100.00;96143.88;1036049;28;20026;-76
2023/06/27 00:54:34;;;;;;;4.15;1.90;;;;;;;13.69;100.00;96138.63;1038616;28;20056;-76
2023/06/27 00:55:06;;;;;;;4.72;1.73;;;;;;;13.75;100.00;96149.94;1042553;28;20478;-76
2023/06/27 00:55:39;;;;;;;5.75;1.80;;;;;;;13.76;100.00;96143.59;1034430;28;20026;-76
2023/06/27 00:56:10;;;;;;;3.58;1.77;;;;;;;13.70;100.00;96136.78;1038729;28;20156;-76
2023/06/27 00:56:41;;;;;;;3.63;2.30;;;;;;;13.64;100.00;96133.38;1034347;28;20191;-76
2023/06/27 00:57:11;;;;;;;5.30;1.60;;;;;;;13.72;100.00;96145.22;1038254;28;20585;-76
2023/06/27 00:57:41;;;;;;;3.92;1.60;;;;;;;13.69;100.00;96146.53;1042403;28;20020;-75
2023/06/27 00:58:12;;;;;;;3.33;1.80;;;;;;;13.67;100.00;96143.38;1046781;28;20311;-75
2023/06/27 00:58:42;;;;;;;5.22;2.08;;;;;;;13.69;100.00;96146.53;1042765;28;20044;-76
2023/06/27 00:59:13;;;;;;;2.55;1.75;;;;;;;13.71;100.00;96152.31;1042500;28;20033;-76
2023/06/27 00:59:44;;;;;;;5.60;2.00;;;;;;;13.74;100.00;96148.34;1038723;28;20399;-77
2023/06/27 01:00:17;;;;;;;2.78;1.75;;;;;;;13.74;100.00;96137.81;1051012;28;20040;-76
2023/06/27 01:00:48;;;;;;;4.10;1.40;;;;;;;13.81;100.00;96149.63;1041604;28;20060;-76
2023/06/27 01:01:19;;;;;;;3.58;1.60;;;;;;;13.82;100.00;96151.22;1037840;28;20319;-76
2023/06/27 01:01:50;;;;;;;4.53;1.77;;;;;;;13.83;100.00;96146.72;1030356;28;20076;-75
2023/06/27 01:02:23;;;;;;;4.70;1.65;;;;;;;13.84;100.00;96148.31;1030758;28;20030;-76
2023/06/27 01:02:54;;;;;;;4.05;1.80;;;;;;;13.77;100.00;96138.03;1039833;28;20594;-76
2023/06/27 01:03:25;;;;;;;13.32;1.90;;;;;;;13.83;100.00;96152.78;1047614;28;20040;-76
2023/06/27 01:03:55;;;;;;;8.38;2.03;;;;;;;13.78;100.00;96144.91;1050809;28;20024;-76
2023/06/27 01:04:26;;;;;;;4.70;1.60;;;;;;;13.81;100.00;96146.97;1047067;28;20402;-76
2023/06/27 01:04:56;;;;;;;3.60;1.80;;;;;;;13.80;100.00;96148.06;1042584;28;20429;-76
2023/06/27 01:05:28;;;;;;;4.82;2.08;;;;;;;13.84;100.00;96150.94;1038536;28;20025;-77
2023/06/27 01:06:01;;;;;;;3.53;1.67;;;;;;;13.77;100.00;96143.31;1038143;28;20418;-76
2023/06/27 01:06:56;;;;;;;2.95;1.55;;;;;;;13.84;100.00;96158.84;1042776;28;20041;-76
2023/06/27 01:07:32;;;;;;;2.15;1.25;;;;;;;13.86;100.00;96146.97;1034359;28;20538;-76
2023/06/27 01:08:14;;;;;;;5.50;1.38;;;;;;;13.87;100.00;96153.81;1046640;28;20044;-76
2023/06/27 01:08:47;;;;;;;4.93;1.33;;;;;;;13.91;100.00;96149.56;1042675;28;20013;-76
2023/06/27 01:09:36;;;;;;;4.72;2.03;;;;;;;13.91;100.00;96148.78;1042485;28;20118;-76
2023/06/27 01:10:11;;;;;;;3.63;1.50;;;;;;;13.91;100.00;96149.56;1038597;28;20433;-76
2023/06/27 01:10:52;;;;;;;4.15;1.60;;;;;;;13.88;100.00;96152.78;1042806;28;20017;-76
2023/06/27 01:11:29;;;;;;;6.85;1.75;;;;;;;13.86;100.00;96149.59;1045907;28;20019;-75
2023/06/27 01:12:20;;;;;;;2.90;1.52;;;;;;;13.85;100.00;96150.69;1038518;28;20040;-75
2023/06/27 01:13:12;;;;;;;5.70;1.77;;;;;;;13.85;100.00;96161.22;1040466;28;20041;-75
2023/06/27 01:13:47;;;;;;;3.53;1.42;;;;;;;13.77;100.00;96148.59;1048841;28;20095;-75
2023/06/27 01:14:18;;;;;;;4.53;1.80;;;;;;;13.76;100.00;96157.59;1046651;28;20013;-75
2023/06/27 01:14:49;;;;;;;3.33;1.73;;;;;;;13.79;100.00;96162.31;1043128;28;20820;-76
2023/06/27 01:15:20;;;;;;;4.68;1.55;;;;;;;13.79;100.00;96162.31;1038576;28;20056;-75
2023/06/27 01:15:51;;;;;;;5.95;1.60;;;;;;;13.78;100.00;96168.66;1038512;28;20017;-75
2023/06/27 01:16:22;;;;;;;2.60;1.65;;;;;;;13.78;100.00;96165.22;1034579;28;20027;-76
2023/06/27 01:16:52;;;;;;;3.83;1.60;;;;;;;13.76;100.00;96162.84;1038427;28;20022;-75
2023/06/27 01:17:23;;;;;;;5.82;1.95;;;;;;;13.62;100.00;96146.06;1034493;28;20018;-76
2023/06/27 01:17:53;;;;;;;3.45;1.85;;;;;;;13.64;100.00;96149.97;1038367;28;20058;-76
2023/06/27 01:18:25;;;;;;;5.28;2.00;;;;;;;13.66;100.00;96153.16;1038287;28;20018;-76
2023/06/27 01:18:57;;;;;;;4.63;1.75;;;;;;;13.75;100.00;96156.00;1038367;28;20025;-75
2023/06/27 01:19:28;;;;;;;4.22;1.70;;;;;;;13.70;100.00;96156.03;1038454;28;20025;-76
2023/06/27 01:19:59;;;;;;;3.25;1.77;;;;;;;13.70;100.00;96147.31;1031182;28;20393;-76
2023/06/27 01:20:32;;;;;;;4.38;1.80;;;;;;;13.73;100.00;96157.34;1034300;28;20033;-76
2023/06/27 01:21:03;;;;;;;3.05;1.80;;;;;;;13.75;100.00;96160.47;1033848;28;20010;-75
2023/06/27 01:21:33;;;;;;;4.65;1.90;;;;;;;13.74;100.00;96167.59;1038341;28;20014;-76
2023/06/27 01:22:06;;;;;;;3.38;1.80;;;;;;;13.74;100.00;96162.31;1038415;28;20016;-76
2023/06/27 01:22:37;;;;;;;10.18;2.05;;;;;;;13.74;100.00;96164.97;1038376;28;20013;-76
2023/06/27 01:23:29;;;;;;;9.30;2.08;;;;;;;13.73;100.00;96157.34;1030357;28;20033;-75
2023/06/27 01:24:02;;;;;;;5.45;1.80;;;;;;;13.65;100.00;96154.22;1038487;28;20056;-76
2023/06/27 01:24:33;;;;;;;8.60;1.80;;;;;;;13.64;100.00;96155.25;1034260;28;20025;-75
2023/06/27 01:25:07;;;;;;;3.95;1.77;;;;;;;13.69;100.00;96165.00;1034886;28;20778;-75
2023/06/27 01:25:37;;;;;;;8.20;1.98;;;;;;;13.71;100.00;96162.09;1034338;28;20029;-76
2023/06/27 01:26:08;;;;;;;5.20;1.52;;;;;;;13.71;100.00;96167.34;1034383;28;20067;-76
2023/06/27 01:26:38;;;;;;;2.47;1.60;;;;;;;13.67;100.00;96164.47;1034233;28;20026;-75
2023/06/27 01:27:11;;;;;;;2.25;1.42;;;;;;;13.67;100.00;96160.00;1033978;28;20044;-76
2023/06/27 01:27:42;;;;;;;2.20;1.20;;;;;;;13.64;100.00;96154.47;1035119;28;20103;-75
2023/06/27 01:28:14;;;;;;;5.45;1.77;;;;;;;13.71;100.00;96170.78;1037313;28;20087;-76
2023/06/27 01:28:44;;;;;;;6.38;1.95;;;;;;;13.73;100.00;96173.94;1038327;28;20029;-76
2023/06/27 01:29:15;;;;;;;4.72;1.40;;;;;;;13.73;100.00;96158.13;1034394;28;20393;-75
2023/06/27 01:29:45;;;;;;;5.25;1.95;;;;;;;13.67;100.00;96152.06;1034754;28;20088;-76
2023/06/27 01:30:17;;;;;;;5.45;1.73;;;;;;;13.71;100.00;96152.31;1042731;28;20438;-76
2023/06/27 01:30:48;;;;;;;7.70;1.70;;;;;;;13.76;100.00;96172.63;1047045;28;20525;-75
2023/06/27 01:31:40;;;;;;;3.65;1.80;;;;;;;13.75;100.00;96163.13;1045917;28;20078;-76
2023/06/27 01:32:15;;;;;;;13.18;2.40;;;;;;;13.68;100.00;96158.13;1043462;28;20027;-76
2023/06/27 01:32:52;;;;;;;8.50;1.70;;;;;;;13.71;100.00;96162.09;1050134;28;20023;-76
2023/06/27 01:33:27;;;;;;;5.13;2.00;;;;;;;13.68;100.00;96160.78;1042618;28;20021;-75
2023/06/27 01:34:34;;;;;;;5.68;2.08;;;;;;;13.65;100.00;96166.63;1026279;28;20011;-76
2023/06/27 01:35:11;;;;;;;6.47;1.85;;;;;;;13.63;100.00;96174.78;1035780;28;20733;-76
2023/06/27 01:35:55;;;;;;;7.57;2.13;;;;;;;13.58;100.00;96171.38;1042615;28;20017;-76
2023/06/27 01:36:47;;;;;;;4.15;1.40;;;;;;;13.54;100.00;96165.06;1028919;28;20121;-75
2023/06/27 01:37:23;;;;;;;4.82;1.58;;;;;;;13.54;100.00;96172.97;1041503;28;20019;-76
2023/06/27 01:37:55;;;;;;;6.72;1.80;;;;;;;13.54;100.00;96165.84;1034322;28;20068;-76
2023/06/27 01:38:34;;;;;;;11.35;3.92;;;;;;;13.44;100.00;96161.41;1038509;28;20523;-76
2023/06/27 01:39:12;;;;;;;4.50;1.80;;;;;;;13.49;100.00;96167.75;1034577;28;20373;-75
2023/06/27 01:39:45;;;;;;;5.97;2.08;;;;;;;13.43;100.00;96170.38;1038403;28;20621;-75
2023/06/27 01:40:18;;;;;;;4.88;2.15;;;;;;;13.42;100.00;96168.03;1030342;28;20010;-76
2023/06/27 01:40:49;;;;;;;7.75;1.88;;;;;;;13.40;100.00;96160.38;1042936;28;20741;-75
2023/06/27 01:41:20;;;;;;;3.97;1.75;;;;;;;13.44;100.00;96176.44;1033834;28;20100;-76
2023/06/27 01:41:51;;;;;;;3.92;1.77;;;;;;;13.44;100.00;96161.41;1034568;28;20060;-76
2023/06/27 01:42:26;;;;;;;3.80;1.50;;;;;;;13.48;100.00;96174.03;1034869;28;20013;-76
2023/06/27 01:43:01;;;;;;;2.65;1.70;;;;;;;13.36;100.00;96154.06;1035505;28;20014;-76
2023/06/27 01:43:32;;;;;;;11.48;2.20;;;;;;;13.48;100.00;96163.50;1034300;28;20668;-75
2023/06/27 01:44:02;;;;;;;4.53;1.92;;;;;;;13.43;100.00;96159.03;1034377;28;20010;-76
2023/06/27 01:44:33;;;;;;;2.60;1.65;;;;;;;13.39;100.00;96160.66;1030396;28;20356;-76
2023/06/27 01:45:04;;;;;;;5.07;1.67;;;;;;;13.41;100.00;96166.44;1038539;28;20658;-76
2023/06/27 01:45:34;;;;;;;4.35;1.52;;;;;;;13.39;100.00;96161.44;1042286;28;20013;-76
2023/06/27 01:46:05;;;;;;;7.45;1.73;;;;;;;13.38;100.00;96162.50;1042712;28;20021;-76
2023/06/27 01:46:35;;;;;;;7.55;2.20;;;;;;;13.38;100.00;96169.59;1042631;28;20025;-76
2023/06/27 01:47:06;;;;;;;5.70;1.80;;;;;;;13.30;100.00;96160.41;1034341;28;20017;-75
2023/06/27 01:47:42;;;;;;;5.07;1.88;;;;;;;13.36;100.00;96156.69;1026129;28;20489;-76
2023/06/27 01:48:13;;;;;;;5.78;2.30;;;;;;;13.38;100.00;96157.22;1030649;28;20108;-76
2023/06/27 01:48:44;;;;;;;5.45;2.05;;;;;;;13.41;100.00;96156.69;1039372;28;20569;-75
2023/06/27 01:49:14;;;;;;;5.45;2.22;;;;;;;13.46;100.00;96161.16;1038954;28;20580;-76
2023/06/27 01:49:45;;;;;;;4.35;1.88;;;;;;;13.45;100.00;96162.22;1035101;28;20030;-75
2023/06/27 01:50:15;;;;;;;3.45;1.70;;;;;;;13.48;100.00;96166.13;1035178;28;20029;-76
2023/06/27 01:50:46;;;;;;;10.40;2.10;;;;;;;13.47;100.00;96164.56;1041638;28;20495;-76
2023/06/27 01:51:16;;;;;;;4.13;1.70;;;;;;;13.43;100.00;96159.84;1030456;28;20029;-75
2023/06/27 01:51:47;;;;;;;5.18;1.90;;;;;;;13.38;100.00;96151.97;1031049;28;20050;-76
2023/06/27 01:52:19;;;;;;;3.75;1.92;;;;;;;13.41;100.00;96156.69;1034172;28;20120;-75
2023/06/27 01:52:49;;;;;;;5.25;2.05;;;;;;;13.44;100.00;96165.88;1035291;28;20030;-76
2023/06/27 01:53:19;;;;;;;4.05;1.60;;;;;;;13.40;100.00;96157.72;1035155;28;20022;-75
2023/06/27 01:53:50;;;;;;;3.83;1.73;;;;;;;13.40;100.00;96155.09;1035084;28;20057;-75
2023/06/27 01:54:20;;;;;;;5.60;1.90;;;;;;;13.39;100.00;96156.16;1031011;28;20077;-76
2023/06/27 01:54:51;;;;;;;4.95;2.25;;;;;;;13.38;100.00;96154.59;1035292;28;20513;-75
2023/06/27 01:55:21;;;;;;;13.18;3.55;;;;;;;13.39;100.00;96152.75;1035387;28;20030;-75
2023/06/27 01:55:52;;;;;;;5.03;1.85;;;;;;;13.35;100.00;96160.41;1039050;28;20155;-76
2023/06/27 01:56:23;;;;;;;5.72;2.00;;;;;;;13.33;100.00;96148.53;1043459;28;20562;-75
2023/06/27 01:56:54;;;;;;;6.00;1.75;;;;;;;13.39;100.00;96152.75;1035072;28;20459;-75
2023/06/27 01:57:24;;;;;;;5.38;1.80;;;;;;;13.41;100.00;96158.53;1031320;28;20228;-76
2023/06/27 01:57:55;;;;;;;7.03;1.90;;;;;;;13.39;100.00;96147.47;1039013;28;20025;-75
2023/06/27 01:58:26;;;;;;;5.43;1.88;;;;;;;13.43;100.00;96154.56;1035119;28;20022;-76
2023/06/27 01:58:56;;;;;;;3.53;1.70;;;;;;;13.39;100.00;96137.72;1039126;28;20022;-75
2023/06/27 01:59:27;;;;;;;5.03;1.50;;;;;;;13.43;100.00;96143.22;1035349;28;20030;-76
2023/06/27 01:59:57;;;;;;;3.90;1.73;;;;;;;13.50;100.00;96153.50;1031114;28;20585;-76
2023/06/27 02:00:28;;;;;;;3.78;1.88;;;;;;;13.52;100.00;96151.38;1035260;28;20096;-76
2023/06/27 02:00:58;;;;;;;3.88;1.92;;;;;;;13.43;100.00;96144.03;1041080;28;20029;-75
2023/06/27 02:01:29;;;;;;;3.65;1.50;;;;;;;13.41;100.00;96134.78;1038905;28;20071;-76
2023/06/27 02:01:59;;;;;;;3.40;1.90;;;;;;;13.42;100.00;96139.03;1043368;28;20441;-75
2023/06/27 02:02:30;;;;;;;9.65;2.85;;;;;;;13.49;100.00;96149.28;1035041;28;20025;-76
2023/06/27 02:03:00;;;;;;;3.72;2.05;;;;;;;13.47;100.00;96146.13;1031248;28;20026;-75
2023/06/27 02:03:31;;;;;;;2.50;1.73;;;;;;;13.50;100.00;96145.56;1039259;28;20057;-75
2023/06/27 02:04:03;;;;;;;6.60;2.45;;;;;;;13.44;100.00;96144.81;1039185;28;20025;-76
2023/06/27 02:04:34;;;;;;;5.65;2.22;;;;;;;13.49;100.00;96147.44;1042765;28;20048;-75
2023/06/27 02:05:04;;;;;;;5.22;1.80;;;;;;;13.47;100.00;96144.25;1035211;28;20486;-75
2023/06/27 02:05:35;;;;;;;2.17;1.60;;;;;;;13.39;100.00;96135.06;1031055;28;20496;-75
2023/06/27 02:06:05;;;;;;;3.30;1.92;;;;;;;13.43;100.00;96148.50;1042070;28;20533;-76
2023/06/27 02:06:36;;;;;;;2.63;1.63;;;;;;;13.40;100.00;96149.03;1047429;28;20024;-75
2023/06/27 02:07:06;;;;;;;4.82;2.00;;;;;;;13.34;100.00;96142.22;1051573;28;20020;-76
2023/06/27 02:07:37;;;;;;;7.57;1.70;;;;;;;13.38;100.00;96146.69;1043862;28;20933;-76
2023/06/27 02:08:07;;;;;;;5.22;1.63;;;;;;;13.35;100.00;96143.81;1035146;28;20083;-75
2023/06/27 02:08:38;;;;;;;2.88;1.60;;;;;;;13.40;100.00;96149.81;1030972;28;20407;-76
2023/06/27 02:09:08;;;;;;;2.88;1.70;;;;;;;13.30;100.00;96141.97;1031170;28;20018;-75
2023/06/27 02:09:40;;;;;;;7.10;1.77;;;;;;;13.38;100.00;96149.31;1038800;28;20045;-76
2023/06/27 02:10:11;;;;;;;3.10;1.63;;;;;;;13.32;100.00;96136.44;1039454;28;20427;-75
2023/06/27 02:10:41;;;;;;;5.45;1.70;;;;;;;13.37;100.00;96153.00;1026964;28;20107;-76
2023/06/27 02:11:12;;;;;;;2.88;1.70;;;;;;;13.35;100.00;96152.50;1036670;28;20053;-75
2023/06/27 02:11:42;;;;;;;6.32;1.90;;;;;;;13.27;100.00;96139.88;1039180;28;20025;-76
2023/06/27 02:12:13;;;;;;;3.88;1.88;;;;;;;13.28;100.00;96146.72;1035059;28;20030;-75
2023/06/27 02:12:43;;;;;;;5.78;2.17;;;;;;;13.22;100.00;96139.88;1042902;28;20669;-76
2023/06/27 02:13:14;;;;;;;4.53;2.08;;;;;;;13.28;100.00;96153.81;1035069;28;20498;-75
2023/06/27 02:13:45;;;;;;;3.13;1.63;;;;;;;13.21;100.00;96140.91;1039177;28;20040;-76
2023/06/27 02:14:15;;;;;;;3.53;1.67;;;;;;;13.27;100.00;96154.88;1039193;28;20037;-76
2023/06/27 02:14:45;;;;;;;5.55;2.05;;;;;;;13.25;100.00;96157.81;1038853;28;20088;-75
2023/06/27 02:15:16;;;;;;;5.40;1.90;;;;;;;13.25;100.00;96157.03;1039249;28;20096;-77
2023/06/27 02:15:46;;;;;;;5.05;2.08;;;;;;;13.21;100.00;96157.53;1043373;28;20072;-76
2023/06/27 02:16:17;;;;;;;3.42;1.88;;;;;;;13.20;100.00;96158.56;1041396;28;20410;-76
2023/06/27 02:16:47;;;;;;;8.10;2.20;;;;;;;13.21;100.00;96161.97;1039158;28;20029;-76
2023/06/27 02:17:18;;;;;;;5.40;1.92;;;;;;;13.20;100.00;96161.19;1043252;28;20036;-75
2023/06/27 02:17:48;;;;;;;7.18;2.22;;;;;;;13.17;100.00;96155.69;1042308;28;20025;-76
2023/06/27 02:18:19;;;;;;;4.32;2.08;;;;;;;13.15;100.00;96158.59;1040236;28;20029;-75
2023/06/27 02:18:49;;;;;;;4.68;1.80;;;;;;;13.15;100.00;96158.59;1043144;28;20029;-76
2023/06/27 02:19:20;;;;;;;7.05;2.22;;;;;;;13.15;100.00;96152.53;1043181;28;20040;-75
2023/06/27 02:19:50;;;;;;;7.18;2.03;;;;;;;13.12;100.00;96153.06;1039314;28;20029;-75
2023/06/27 02:20:21;;;;;;;4.43;2.13;;;;;;;13.11;100.00;96162.81;1038900;28;20098;-76
2023/06/27 02:20:51;;;;;;;3.67;1.90;;;;;;;13.13;100.00;96167.81;1039041;28;20038;-76
2023/06/27 02:21:22;;;;;;;7.47;1.98;;;;;;;13.11;100.00;96162.00;1038332;28;20506;-76
2023/06/27 02:21:52;;;;;;;2.40;1.90;;;;;;;13.09;100.00;96161.50;1035085;28;20526;-75
2023/06/27 02:22:23;;;;;;;7.05;1.70;;;;;;;13.07;100.00;96156.50;1043442;28;20032;-75
2023/06/27 02:22:53;;;;;;;5.00;2.00;;;;;;;13.07;100.00;96160.97;1046844;28;20021;-75
2023/06/27 02:23:25;;;;;;;4.78;1.88;;;;;;;13.08;100.00;96157.31;1045382;28;20024;-76
2023/06/27 02:23:55;;;;;;;8.85;2.35;;;;;;;13.06;100.00;96154.13;1043705;28;20033;-75
2023/06/27 02:24:26;;;;;;;4.88;2.05;;;;;;;13.07;100.00;96155.72;1043326;28;20040;-75
2023/06/27 02:24:56;;;;;;;3.95;1.95;;;;;;;13.06;100.00;96154.13;1039887;28;20030;-75
2023/06/27 02:25:27;;;;;;;4.15;1.75;;;;;;;12.99;100.00;96149.16;1047061;28;20501;-75
2023/06/27 02:25:57;;;;;;;5.55;2.13;;;;;;;13.05;100.00;96152.56;1039053;28;20029;-75
2023/06/27 02:26:28;;;;;;;3.15;2.00;;;;;;;13.05;100.00;96157.84;1039287;28;20025;-75
2023/06/27 02:26:58;;;;;;;6.18;1.80;;;;;;;13.04;100.00;96156.25;1039216;28;20033;-75
2023/06/27 02:27:29;;;;;;;3.67;1.60;;;;;;;13.03;100.00;96154.66;1043644;28;20088;-75
2023/06/27 02:27:59;;;;;;;5.88;1.98;;;;;;;13.03;100.00;96159.94;1047598;28;20113;-75
2023/06/27 02:28:30;;;;;;;3.95;1.65;;;;;;;13.01;100.00;96156.78;1048715;28;20040;-75
2023/06/27 02:29:00;;;;;;;7.10;1.98;;;;;;;12.97;100.00;96157.31;1052004;28;20028;-75